Darstellungsparameter: Aktuell verwendete Einstellungen:
Skalierung der Graphiken ... ?
xyx+y,   Skalierungsfaktor:      Skalierung: Modus: x, Faktor: 1
Darstellungszeitraum ... ?
Vom - - bis: - -   Zeitraum: 22.01.2017 - 22.01.2017
Min/Max/Avg-Anzeige ... ?
Zeige MMA aktuell
Zeige MMA Monat
Zeige MMA alles
Zeige --A aktuell
Zeige --A Monat
Zeige --A alles
Keine MMA-Anzeige
MMA:
Average (ber die Originaldaten)
MMA-Basis: 22.01.2017 - 22.01.2017
Quicknavigation für Darstellung... ?
Tage:      1T, 2T, 3T, 5T -1T -2T -3T -5T +1T +2T +3T +5T
Wochen: 1W, 2W, 3W -1W -2W -3W +1W +2W +3W
Monate: 1M, 3M, 6M -1M -3M -6M +1M +3M +6M
Jahre:    1J, 3J, 5J, 10J -1J -3J -5J -10J +1J +3J +5J +10J
Nutze für die Darstellung ... ?
Originaldaten oder Mittelwerte auf ...
Stundenbasis Tagesbasis Wochenbasis
Monatsbasis Jahresbasis      Datenbasis: Original-Daten
Darstellen als:
Statistik (Auto) Statistik J:M      Darstellung:
Zur Graphik,    zurück zur Übersicht aller Sensoren.
 
Tabellarische Datenbersicht: ?
 
Sensor: Nr:Datum:Temp:Abs-Feuchte:Windchill:Wind:
Aussen-T/F 1 22-01-2017 00:00:00 -7.2 C 2.7 g/m*3 -7.2 C 0 km/h
2 22-01-2017 00:05:00 -7.3 C 2.65 g/m*3 -7.3 C 0 km/h
3 22-01-2017 00:10:00 -7.1 C 2.72 g/m*3 -7.1 C 0 km/h
4 22-01-2017 00:15:00 -6.9 C 2.79 g/m*3 -6.9 C 3.2 km/h
5 22-01-2017 00:20:00 -6.8 C 2.81 g/m*3 -6.8 C 1.6 km/h
6 22-01-2017 00:25:00 -6.7 C 2.8 g/m*3 -6.7 C 0 km/h
7 22-01-2017 00:30:00 -6.7 C 2.8 g/m*3 -6.7 C 0 km/h
8 22-01-2017 00:35:00 -6.8 C 2.78 g/m*3 -6.8 C 0 km/h
9 22-01-2017 00:40:00 -7 C 2.74 g/m*3 -7 C 0 km/h
10 22-01-2017 00:45:00 -7.2 C 2.7 g/m*3 -7.2 C 0 km/h
11 22-01-2017 00:50:00 -7.3 C 2.65 g/m*3 -7.3 C 0 km/h
12 22-01-2017 00:55:00 -7.5 C 2.61 g/m*3 -7.5 C 0 km/h
13 22-01-2017 01:00:00 -7.6 C 2.59 g/m*3 -7.6 C 0 km/h
14 22-01-2017 01:05:00 -7.7 C 2.6 g/m*3 -7.7 C 0 km/h
15 22-01-2017 01:10:00 -7.5 C 2.64 g/m*3 -7.5 C 0 km/h
16 22-01-2017 01:15:00 -7.4 C 2.66 g/m*3 -7.4 C 0 km/h
17 22-01-2017 01:20:00 -7.5 C 2.64 g/m*3 -7.5 C 0 km/h
18 22-01-2017 01:25:00 -7.6 C 2.62 g/m*3 -7.6 C 0 km/h
19 22-01-2017 01:30:00 -7.7 C 2.6 g/m*3 -7.7 C 0 km/h
20 22-01-2017 01:35:00 -7.7 C 2.6 g/m*3 -7.7 C 0 km/h
21 22-01-2017 01:40:00 -7.7 C 2.6 g/m*3 -7.7 C 0 km/h
22 22-01-2017 01:45:00 -7.6 C 2.65 g/m*3 -7.6 C 0 km/h
23 22-01-2017 01:50:00 -7.5 C 2.67 g/m*3 -7.5 C 0 km/h
24 22-01-2017 01:55:00 -7.4 C 2.69 g/m*3 -7.4 C 0 km/h
25 22-01-2017 02:00:00 -7.4 C 2.69 g/m*3 -7.4 C 0 km/h
Sensor: Nr:Datum:Temp:Abs-Feuchte:Windchill:Wind:
Aussen-T/F 26 22-01-2017 02:05:00 -7.6 C 2.62 g/m*3 -7.6 C 1.6 km/h
27 22-01-2017 02:10:00 -7.7 C 2.6 g/m*3 -7.7 C 0 km/h
28 22-01-2017 02:15:00 -7.7 C 2.6 g/m*3 -7.7 C 0 km/h
29 22-01-2017 02:20:00 -7.8 C 2.58 g/m*3 -7.8 C 0 km/h
30 22-01-2017 02:25:00 -8 C 2.54 g/m*3 -8 C 0 km/h
31 22-01-2017 02:30:00 -8.2 C 2.51 g/m*3 -8.2 C 0 km/h
32 22-01-2017 02:35:00 -8.2 C 2.51 g/m*3 -8.2 C 0 km/h
33 22-01-2017 02:40:00 -8.3 C 2.49 g/m*3 -8.3 C 0 km/h
34 22-01-2017 02:45:00 -8.3 C 2.49 g/m*3 -8.3 C 0 km/h
35 22-01-2017 02:50:00 -8.4 C 2.47 g/m*3 -8.4 C 0 km/h
36 22-01-2017 02:55:00 -8.6 C 2.43 g/m*3 -8.6 C 0 km/h
37 22-01-2017 03:00:00 -8.7 C 2.39 g/m*3 -8.7 C 0 km/h
38 22-01-2017 03:05:00 -8.8 C 2.37 g/m*3 -8.8 C 0 km/h
39 22-01-2017 03:10:00 -8.9 C 2.38 g/m*3 -8.9 C 0 km/h
40 22-01-2017 03:15:00 -9 C 2.36 g/m*3 -9 C 0 km/h
41 22-01-2017 03:20:00 -9 C 2.36 g/m*3 -9 C 0 km/h
42 22-01-2017 03:25:00 -9 C 2.36 g/m*3 -9 C 0 km/h
43 22-01-2017 03:30:00 -8.9 C 2.38 g/m*3 -8.9 C 0 km/h
44 22-01-2017 03:35:00 -9.1 C 2.34 g/m*3 -9.1 C 0 km/h
45 22-01-2017 03:40:00 -9.1 C 2.34 g/m*3 -9.1 C 0 km/h
46 22-01-2017 03:45:00 -9.1 C 2.34 g/m*3 -9.1 C 0 km/h
47 22-01-2017 03:50:00 -9.1 C 2.34 g/m*3 -9.1 C 0 km/h
48 22-01-2017 03:55:00 -9.1 C 2.34 g/m*3 -9.1 C 0 km/h
49 22-01-2017 04:00:00 -9 C 2.36 g/m*3 -9 C 0 km/h
50 22-01-2017 04:05:00 -8.8 C 2.42 g/m*3 -8.8 C 0 km/h
Sensor: Nr:Datum:Temp:Abs-Feuchte:Windchill:Wind:
Aussen-T/F 51 22-01-2017 04:10:00 -8.7 C 2.44 g/m*3 -8.7 C 0 km/h
52 22-01-2017 04:15:00 -8.7 C 2.44 g/m*3 -8.7 C 0 km/h
53 22-01-2017 04:20:00 -8.7 C 2.41 g/m*3 -8.7 C 0 km/h
54 22-01-2017 04:25:00 -8.7 C 2.41 g/m*3 -8.7 C 0 km/h
55 22-01-2017 04:30:00 -8.7 C 2.41 g/m*3 -8.7 C 1.6 km/h
56 22-01-2017 04:35:00 -8.8 C 2.4 g/m*3 -8.8 C 0 km/h
57 22-01-2017 04:40:00 -8.7 C 2.41 g/m*3 -8.7 C 1.6 km/h
58 22-01-2017 04:45:00 -8.7 C 2.41 g/m*3 -8.7 C 1.6 km/h
59 22-01-2017 04:50:00 -8.7 C 2.41 g/m*3 -8.7 C 0 km/h
60 22-01-2017 04:55:00 -8.7 C 2.41 g/m*3 -8.7 C 0 km/h
61 22-01-2017 05:00:00 -8.7 C 2.41 g/m*3 -8.7 C 0 km/h
62 22-01-2017 05:05:00 -8.9 C 2.38 g/m*3 -8.9 C 0 km/h
63 22-01-2017 05:10:00 -9.1 C 2.32 g/m*3 -9.1 C 0 km/h
64 22-01-2017 05:15:00 -9.2 C 2.3 g/m*3 -9.2 C 0 km/h
65 22-01-2017 05:20:00 -9.3 C 2.31 g/m*3 -9.3 C 0 km/h
66 22-01-2017 05:25:00 -9.3 C 2.31 g/m*3 -9.3 C 0 km/h
67 22-01-2017 05:30:00 -9.2 C 2.33 g/m*3 -9.2 C 0 km/h
68 22-01-2017 05:35:00 -9.2 C 2.33 g/m*3 -9.2 C 0 km/h
69 22-01-2017 05:40:00 -9.3 C 2.31 g/m*3 -9.3 C 0 km/h
70 22-01-2017 05:45:00 -9.3 C 2.31 g/m*3 -9.3 C 0 km/h
71 22-01-2017 05:50:00 -9.4 C 2.29 g/m*3 -9.4 C 0 km/h
72 22-01-2017 05:55:00 -9.5 C 2.25 g/m*3 -9.5 C 0 km/h
73 22-01-2017 06:00:00 -9.7 C 2.22 g/m*3 -9.7 C 0 km/h
74 22-01-2017 06:05:00 -9.8 C 2.2 g/m*3 -9.8 C 0 km/h
75 22-01-2017 06:10:00 -9.9 C 2.18 g/m*3 -9.9 C 0 km/h
Sensor: Nr:Datum:Temp:Abs-Feuchte:Windchill:Wind:
Aussen-T/F 76 22-01-2017 06:15:00 -10 C 2.17 g/m*3 -10 C 0 km/h
77 22-01-2017 06:20:00 -10.1 C 2.15 g/m*3 -10.1 C 0 km/h
78 22-01-2017 06:25:00 -10.1 C 2.15 g/m*3 -10.1 C 0 km/h
79 22-01-2017 06:30:00 -10.1 C 2.15 g/m*3 -10.1 C 0 km/h
80 22-01-2017 06:35:00 -10.1 C 2.15 g/m*3 -10.1 C 0 km/h
81 22-01-2017 06:40:00 -10.1 C 2.15 g/m*3 -10.1 C 0 km/h
82 22-01-2017 06:45:00 -10.1 C 2.17 g/m*3 -10.1 C 0 km/h
83 22-01-2017 06:50:00 -10.1 C 2.17 g/m*3 -10.1 C 0 km/h
84 22-01-2017 06:55:00 -9.9 C 2.21 g/m*3 -9.9 C 0 km/h
85 22-01-2017 07:00:00 -9.9 C 2.21 g/m*3 -9.9 C 0 km/h
86 22-01-2017 07:05:00 -9.8 C 2.22 g/m*3 -9.8 C 0 km/h
87 22-01-2017 07:10:00 -9.8 C 2.22 g/m*3 -9.8 C 0 km/h
88 22-01-2017 07:15:00 -9.8 C 2.22 g/m*3 -9.8 C 0 km/h
89 22-01-2017 07:20:00 -9.9 C 2.21 g/m*3 -9.9 C 0 km/h
90 22-01-2017 07:25:00 -10.1 C 2.15 g/m*3 -10.1 C 0 km/h
91 22-01-2017 07:30:00 -10.2 C 2.13 g/m*3 -10.2 C 0 km/h
92 22-01-2017 07:35:00 -10.3 C 2.12 g/m*3 -10.3 C 0 km/h
93 22-01-2017 09:55:00 -9.9 C 2.21 g/m*3 -9.9 C 0 km/h
94 22-01-2017 10:00:00 -9.8 C 2.22 g/m*3 -9.8 C 0 km/h
95 22-01-2017 10:05:00 -9.8 C 2.22 g/m*3 -9.8 C 0 km/h
96 22-01-2017 10:10:00 -9.7 C 2.24 g/m*3 -9.7 C 0 km/h
97 22-01-2017 10:15:00 -9.7 C 2.24 g/m*3 -9.7 C 0 km/h
98 22-01-2017 10:20:00 -9.7 C 2.24 g/m*3 -9.7 C 0 km/h
99 22-01-2017 10:25:00 -9.6 C 2.26 g/m*3 -9.6 C 0 km/h
100 22-01-2017 10:30:00 -9.6 C 2.26 g/m*3 -9.6 C 0 km/h
Sensor: Nr:Datum:Temp:Abs-Feuchte:Windchill:Wind:
Aussen-T/F 101 22-01-2017 10:35:00 -9.6 C 2.26 g/m*3 -9.6 C 0 km/h
102 22-01-2017 10:40:00 -9.5 C 2.27 g/m*3 -9.5 C 0 km/h
103 22-01-2017 10:45:00 -9.4 C 2.29 g/m*3 -9.4 C 0 km/h
104 22-01-2017 10:50:00 -9.3 C 2.31 g/m*3 -9.3 C 0 km/h
105 22-01-2017 10:55:00 -9.2 C 2.33 g/m*3 -9.2 C 0 km/h
106 22-01-2017 11:00:00 -9.1 C 2.34 g/m*3 -9.1 C 0 km/h
107 22-01-2017 11:05:00 -9 C 2.36 g/m*3 -9 C 0 km/h
108 22-01-2017 11:10:00 -8.8 C 2.4 g/m*3 -8.8 C 0 km/h
109 22-01-2017 11:15:00 -8.7 C 2.41 g/m*3 -8.7 C 0 km/h
110 22-01-2017 11:20:00 -8.6 C 2.46 g/m*3 -8.6 C 0 km/h
111 22-01-2017 11:25:00 -8.5 C 2.45 g/m*3 -8.5 C 0 km/h
112 22-01-2017 11:30:00 -8.4 C 2.47 g/m*3 -8.4 C 0 km/h
113 22-01-2017 11:35:00 -8.3 C 2.49 g/m*3 -8.3 C 0 km/h
114 22-01-2017 11:40:00 -8.3 C 2.49 g/m*3 -8.3 C 0 km/h
115 22-01-2017 11:45:00 -8.2 C 2.53 g/m*3 -8.2 C 0 km/h
116 22-01-2017 11:50:00 -8.1 C 2.55 g/m*3 -8.1 C 0 km/h
117 22-01-2017 11:55:00 -7.9 C 2.59 g/m*3 -7.9 C 0 km/h
118 22-01-2017 12:00:00 -7.8 C 2.61 g/m*3 -7.8 C 0 km/h
119 22-01-2017 12:05:00 -7.7 C 2.63 g/m*3 -7.7 C 0 km/h
120 22-01-2017 12:10:00 -7.5 C 2.67 g/m*3 -7.5 C 0 km/h
121 22-01-2017 12:15:00 -7.4 C 2.69 g/m*3 -7.4 C 0 km/h
122 22-01-2017 12:20:00 -7.3 C 2.71 g/m*3 -7.3 C 0 km/h
123 22-01-2017 12:25:00 -7.2 C 2.73 g/m*3 -7.2 C 0 km/h
124 22-01-2017 12:30:00 -7 C 2.77 g/m*3 -7 C 0 km/h
125 22-01-2017 12:35:00 -6.9 C 2.79 g/m*3 -6.9 C 1.6 km/h
Sensor: Nr:Datum:Temp:Abs-Feuchte:Windchill:Wind:
Aussen-T/F 126 22-01-2017 12:40:00 -6.8 C 2.81 g/m*3 -6.8 C 1.6 km/h
127 22-01-2017 12:45:00 -6.7 C 2.83 g/m*3 -6.7 C 1.6 km/h
128 22-01-2017 12:50:00 -6.7 C 2.83 g/m*3 -6.7 C 1.6 km/h
129 22-01-2017 12:55:00 -6.6 C 2.85 g/m*3 -6.6 C 3.2 km/h
130 22-01-2017 13:00:00 -6.4 C 2.89 g/m*3 -6.4 C 3.2 km/h
131 22-01-2017 13:05:00 -6.3 C 2.91 g/m*3 -6.3 C 1.6 km/h
132 22-01-2017 13:10:00 -6.2 C 2.93 g/m*3 -6.2 C 3.2 km/h
133 22-01-2017 13:15:00 -6.1 C 2.96 g/m*3 -6.1 C 3.2 km/h
134 22-01-2017 13:20:00 -6 C 2.98 g/m*3 -6 C 1.6 km/h
135 22-01-2017 13:25:00 -5.9 C 3 g/m*3 -5.9 C 3.2 km/h
136 22-01-2017 13:30:00 -5.8 C 3.02 g/m*3 -5.8 C 1.6 km/h
137 22-01-2017 13:35:00 -5.7 C 3.04 g/m*3 -5.7 C 0 km/h
138 22-01-2017 13:40:00 -5.6 C 3.06 g/m*3 -5.6 C 1.6 km/h
139 22-01-2017 13:45:00 -5.6 C 3.06 g/m*3 -5.6 C 3.2 km/h
140 22-01-2017 13:50:00 -5.4 C 3.11 g/m*3 -5.4 C 3.2 km/h
141 22-01-2017 13:55:00 -5.3 C 3.13 g/m*3 -5.3 C 1.6 km/h
142 22-01-2017 14:00:00 -5.3 C 3.13 g/m*3 -5.3 C 1.6 km/h
143 22-01-2017 14:05:00 -5.2 C 3.15 g/m*3 -5.2 C 3.2 km/h
144 22-01-2017 14:10:00 -5.1 C 3.18 g/m*3 -5.1 C 3.2 km/h
145 22-01-2017 14:15:00 -5 C 3.2 g/m*3 -5 C 3.2 km/h
146 22-01-2017 14:20:00 -4.9 C 3.22 g/m*3 -4.9 C 3.2 km/h
147 22-01-2017 14:25:00 -4.8 C 3.25 g/m*3 -4.8 C 3.2 km/h
148 22-01-2017 14:30:00 -4.7 C 3.27 g/m*3 -4.7 C 3.2 km/h
149 22-01-2017 14:35:00 -4.6 C 3.29 g/m*3 -4.6 C 3.2 km/h
150 22-01-2017 14:40:00 -4.5 C 3.32 g/m*3 -4.5 C 3.2 km/h
Sensor: Nr:Datum:Temp:Abs-Feuchte:Windchill:Wind:
Aussen-T/F 151 22-01-2017 14:45:00 -4.4 C 3.34 g/m*3 -4.4 C 3.2 km/h
152 22-01-2017 14:50:00 -4.4 C 3.31 g/m*3 -4.4 C 3.2 km/h
153 22-01-2017 14:55:00 -4.3 C 3.33 g/m*3 -4.3 C 3.2 km/h
154 22-01-2017 15:00:00 -4.3 C 3.33 g/m*3 -4.3 C 3.2 km/h
155 22-01-2017 15:05:00 -4.2 C 3.35 g/m*3 -4.2 C 3.2 km/h
156 22-01-2017 15:10:00 -4.1 C 3.38 g/m*3 -4.1 C 3.2 km/h
157 22-01-2017 15:15:00 -4.1 C 3.38 g/m*3 -4.1 C 3.2 km/h
158 22-01-2017 15:20:00 -4 C 3.4 g/m*3 -4 C 4.8 km/h
159 22-01-2017 15:25:00 -3.9 C 3.43 g/m*3 -3.9 C 3.2 km/h
160 22-01-2017 15:30:00 -3.9 C 3.43 g/m*3 -3.9 C 4.8 km/h
161 22-01-2017 15:35:00 -3.8 C 3.41 g/m*3 -3.8 C 3.2 km/h
162 22-01-2017 15:40:00 -3.8 C 3.41 g/m*3 -3.8 C 3.2 km/h
163 22-01-2017 15:45:00 -3.8 C 3.41 g/m*3 -3.8 C 3.2 km/h
164 22-01-2017 15:50:00 -3.7 C 3.44 g/m*3 -3.7 C 4.8 km/h
165 22-01-2017 15:55:00 -3.7 C 3.44 g/m*3 -3.7 C 4.8 km/h
166 22-01-2017 16:00:00 -3.7 C 3.44 g/m*3 -3.7 C 4.8 km/h
167 22-01-2017 16:05:00 -3.7 C 3.44 g/m*3 -3.7 C 4.8 km/h
168 22-01-2017 16:10:00 -3.7 C 3.44 g/m*3 -3.7 C 4.8 km/h
169 22-01-2017 16:15:00 -3.7 C 3.44 g/m*3 -3.7 C 4.8 km/h
170 22-01-2017 16:20:00 -3.7 C 3.44 g/m*3 -3.7 C 4.8 km/h
171 22-01-2017 16:25:00 -3.7 C 3.44 g/m*3 -3.7 C 4.8 km/h
172 22-01-2017 16:30:00 -3.6 C 3.46 g/m*3 -3.6 C 4.8 km/h
173 22-01-2017 16:35:00 -3.6 C 3.46 g/m*3 -3.6 C 4.8 km/h
174 22-01-2017 16:40:00 -3.6 C 3.43 g/m*3 -3.6 C 4.8 km/h
175 22-01-2017 16:45:00 -3.6 C 3.43 g/m*3 -3.6 C 4.8 km/h
Sensor: Nr:Datum:Temp:Abs-Feuchte:Windchill:Wind:
Aussen-T/F 176 22-01-2017 16:50:00 -3.7 C 3.4 g/m*3 -3.7 C 4.8 km/h
177 22-01-2017 16:55:00 -3.7 C 3.4 g/m*3 -3.7 C 4.8 km/h
178 22-01-2017 17:00:00 -3.7 C 3.4 g/m*3 -3.7 C 4.8 km/h
179 22-01-2017 17:05:00 -3.7 C 3.4 g/m*3 -3.7 C 3.2 km/h
180 22-01-2017 17:10:00 -3.8 C 3.34 g/m*3 -3.8 C 0 km/h
181 22-01-2017 17:15:00 -4 C 3.29 g/m*3 -4 C 3.2 km/h
182 22-01-2017 17:20:00 -4.1 C 3.27 g/m*3 -4.1 C 3.2 km/h
183 22-01-2017 17:25:00 -4.2 C 3.25 g/m*3 -4.2 C 4.8 km/h
184 22-01-2017 17:30:00 -4.1 C 3.31 g/m*3 -4.1 C 4.8 km/h
185 22-01-2017 17:35:00 -4.2 C 3.25 g/m*3 -4.2 C 0 km/h
186 22-01-2017 17:40:00 -4.4 C 3.16 g/m*3 -4.4 C 0 km/h
187 22-01-2017 17:45:00 -4.7 C 3.1 g/m*3 -4.7 C 0 km/h
188 22-01-2017 17:50:00 -4.9 C 3.05 g/m*3 -4.9 C 1.6 km/h
189 22-01-2017 17:55:00 -5 C 3.06 g/m*3 -5 C 0 km/h
190 22-01-2017 18:00:00 -4.9 C 3.12 g/m*3 -4.9 C 0 km/h
191 22-01-2017 18:05:00 -4.9 C 3.12 g/m*3 -4.9 C 0 km/h
192 22-01-2017 18:10:00 -4.9 C 3.12 g/m*3 -4.9 C 0 km/h
193 22-01-2017 18:15:00 -5 C 3.1 g/m*3 -5 C 1.6 km/h
194 22-01-2017 18:20:00 -5.2 C 3.05 g/m*3 -5.2 C 1.6 km/h
195 22-01-2017 18:25:00 -5.3 C 3.03 g/m*3 -5.3 C 3.2 km/h
196 22-01-2017 18:30:00 -5.3 C 3.03 g/m*3 -5.3 C 3.2 km/h
197 22-01-2017 18:35:00 -5.2 C 3.09 g/m*3 -5.2 C 3.2 km/h
198 22-01-2017 18:40:00 -5.3 C 3.07 g/m*3 -5.3 C 0 km/h
199 22-01-2017 18:45:00 -5.6 C 2.97 g/m*3 -5.6 C 0 km/h
200 22-01-2017 18:50:00 -5.7 C 2.95 g/m*3 -5.7 C 1.6 km/h
Sensor: Nr:Datum:Temp:Abs-Feuchte:Windchill:Wind:
Aussen-T/F 201 22-01-2017 18:55:00 -5.8 C 2.92 g/m*3 -5.8 C 0 km/h
202 22-01-2017 19:00:00 -5.8 C 2.92 g/m*3 -5.8 C 0 km/h
203 22-01-2017 19:05:00 -5.9 C 2.93 g/m*3 -5.9 C 0 km/h
204 22-01-2017 19:10:00 -6 C 2.91 g/m*3 -6 C 0 km/h
205 22-01-2017 19:15:00 -6.1 C 2.89 g/m*3 -6.1 C 0 km/h
206 22-01-2017 19:20:00 -6.1 C 2.89 g/m*3 -6.1 C 0 km/h
207 22-01-2017 19:25:00 -6.2 C 2.87 g/m*3 -6.2 C 0 km/h
208 22-01-2017 19:30:00 -6.3 C 2.85 g/m*3 -6.3 C 0 km/h
209 22-01-2017 19:35:00 -6.4 C 2.83 g/m*3 -6.4 C 0 km/h
210 22-01-2017 19:40:00 -6.4 C 2.83 g/m*3 -6.4 C 1.6 km/h
211 22-01-2017 19:45:00 -6.4 C 2.83 g/m*3 -6.4 C 0 km/h
212 22-01-2017 19:50:00 -6.4 C 2.83 g/m*3 -6.4 C 0 km/h
213 22-01-2017 19:55:00 -6.6 C 2.79 g/m*3 -6.6 C 0 km/h
214 22-01-2017 20:00:00 -6.6 C 2.79 g/m*3 -6.6 C 0 km/h
215 22-01-2017 20:05:00 -6.6 C 2.79 g/m*3 -6.6 C 0 km/h
216 22-01-2017 20:10:00 -6.6 C 2.79 g/m*3 -6.6 C 0 km/h
217 22-01-2017 20:15:00 -6.6 C 2.79 g/m*3 -6.6 C 0 km/h
218 22-01-2017 20:20:00 -6.7 C 2.77 g/m*3 -6.7 C 0 km/h
219 22-01-2017 20:25:00 -6.9 C 2.73 g/m*3 -6.9 C 0 km/h
220 22-01-2017 20:30:00 -7 C 2.71 g/m*3 -7 C 0 km/h
221 22-01-2017 20:35:00 -7.1 C 2.69 g/m*3 -7.1 C 0 km/h
222 22-01-2017 20:40:00 -7.3 C 2.65 g/m*3 -7.3 C 0 km/h
223 22-01-2017 20:45:00 -7.3 C 2.65 g/m*3 -7.3 C 0 km/h
224 22-01-2017 20:50:00 -7.4 C 2.63 g/m*3 -7.4 C 0 km/h
225 22-01-2017 20:55:00 -7.3 C 2.65 g/m*3 -7.3 C 0 km/h
Sensor: Nr:Datum:Temp:Abs-Feuchte:Windchill:Wind:
Aussen-T/F 226 22-01-2017 21:00:00 -7.4 C 2.63 g/m*3 -7.4 C 0 km/h
227 22-01-2017 21:05:00 -7.6 C 2.59 g/m*3 -7.6 C 0 km/h
228 22-01-2017 21:10:00 -7.6 C 2.59 g/m*3 -7.6 C 0 km/h
229 22-01-2017 21:15:00 -7.5 C 2.64 g/m*3 -7.5 C 0 km/h
230 22-01-2017 21:20:00 -7.4 C 2.66 g/m*3 -7.4 C 0 km/h
231 22-01-2017 21:25:00 -7.3 C 2.68 g/m*3 -7.3 C 0 km/h
232 22-01-2017 21:30:00 -7.5 C 2.64 g/m*3 -7.5 C 0 km/h
233 22-01-2017 21:35:00 -7.4 C 2.66 g/m*3 -7.4 C 0 km/h
234 22-01-2017 21:40:00 -7.5 C 2.64 g/m*3 -7.5 C 0 km/h
235 22-01-2017 21:45:00 -7.6 C 2.62 g/m*3 -7.6 C 0 km/h
236 22-01-2017 21:50:00 -7.7 C 2.6 g/m*3 -7.7 C 0 km/h
237 22-01-2017 21:55:00 -7.7 C 2.6 g/m*3 -7.7 C 0 km/h
238 22-01-2017 22:00:00 -7.8 C 2.58 g/m*3 -7.8 C 0 km/h
239 22-01-2017 22:05:00 -7.9 C 2.56 g/m*3 -7.9 C 0 km/h
240 22-01-2017 22:10:00 -8 C 2.54 g/m*3 -8 C 0 km/h
241 22-01-2017 22:15:00 -8.1 C 2.52 g/m*3 -8.1 C 0 km/h
242 22-01-2017 22:20:00 -8.1 C 2.52 g/m*3 -8.1 C 0 km/h
243 22-01-2017 22:25:00 -8.1 C 2.52 g/m*3 -8.1 C 0 km/h
244 22-01-2017 22:30:00 -8.2 C 2.51 g/m*3 -8.2 C 0 km/h
245 22-01-2017 22:35:00 -8.2 C 2.51 g/m*3 -8.2 C 0 km/h
246 22-01-2017 22:40:00 -8.1 C 2.52 g/m*3 -8.1 C 0 km/h
247 22-01-2017 22:45:00 -8.1 C 2.55 g/m*3 -8.1 C 0 km/h
248 22-01-2017 22:50:00 -7.9 C 2.59 g/m*3 -7.9 C 0 km/h
249 22-01-2017 22:55:00 -7.7 C 2.63 g/m*3 -7.7 C 3.2 km/h
250 22-01-2017 23:00:00 -7.6 C 2.65 g/m*3 -7.6 C 0 km/h
Sensor: Nr:Datum:Temp:Abs-Feuchte:Windchill:Wind:
Aussen-T/F 251 22-01-2017 23:05:00 -7.7 C 2.6 g/m*3 -7.7 C 0 km/h
252 22-01-2017 23:10:00 -7.7 C 2.6 g/m*3 -7.7 C 0 km/h
253 22-01-2017 23:15:00 -7.8 C 2.58 g/m*3 -7.8 C 0 km/h
254 22-01-2017 23:20:00 -8 C 2.54 g/m*3 -8 C 0 km/h
255 22-01-2017 23:25:00 -8.1 C 2.52 g/m*3 -8.1 C 3.2 km/h
256 22-01-2017 23:30:00 -8.2 C 2.51 g/m*3 -8.2 C 3.2 km/h
257 22-01-2017 23:35:00 -8.2 C 2.51 g/m*3 -8.2 C 0 km/h
258 22-01-2017 23:40:00 -8.2 C 2.51 g/m*3 -8.2 C 0 km/h
259 22-01-2017 23:45:00 -8.3 C 2.49 g/m*3 -8.3 C 0 km/h
260 22-01-2017 23:50:00 -8.4 C 2.47 g/m*3 -8.4 C 0 km/h
261 22-01-2017 23:55:00 -8.3 C 2.49 g/m*3 -8.3 C 4.8 km/h

Legende:
   Min
   Max


Maximal/Minimal-Werte vom 22.01.2017 - 22.01.2017

Sensor Min Max Avg
Temp
(Aussen-T/F)
-10.6 °C
22-01-2017  07:55:00
-3.6 °C
22-01-2017  16:30:00
-7.49 °C
Abs-Feuchte
(Aussen-T/F)
2.12 g/m*3
22-01-2017  07:35:00
3.46 g/m*3
22-01-2017  16:30:00
2.7 g/m*3
Windchill
(Aussen-T/F)
-10.3 C
22-01-2017  07:35:00
-3.6 C
22-01-2017  16:30:00
-7.18 C

Die Daten stammen von einer Davis Vantage Pro 2 Wetter-Station und werden unter Linux mit der Software wview2wettercgi und aufbereitet. Alle Angaben erfolgen ohne Gewähr für ihre Vollständigkeit oder Richtigkeit.
Kontakt: Rainer Krienke krienke@uni-koblenz.de . Meine Webseiten an der Uni Koblenz oder privat.
Version: $Revision: 0.78 $